sensor_id;sensor_type;location;lat;lon;timestamp;temperature;humidity
23305;DHT22;11821;51.456;8.844;2023-04-28T11:33:46;13.00;99.90
23305;DHT22;11821;51.456;8.844;2023-04-28T11:38:51;17.20;99.90
23305;DHT22;11821;51.456;8.844;2023-04-28T11:41:18;17.30;99.90
23305;DHT22;11821;51.456;8.844;2023-04-28T11:43:44;17.70;99.90
23305;DHT22;11821;51.456;8.844;2023-04-28T11:46:16;17.70;99.90
23305;DHT22;11821;51.456;8.844;2023-04-28T11:51:09;17.80;99.90
23305;DHT22;11821;51.456;8.844;2023-04-28T11:53:43;18.00;99.90
23305;DHT22;11821;51.456;8.844;2023-04-28T11:56:10;18.00;99.90
23305;DHT22;11821;51.456;8.844;2023-04-28T11:58:38;18.10;99.90
23305;DHT22;11821;51.456;8.844;2023-04-28T12:01:10;18.20;99.90
23305;DHT22;11821;51.456;8.844;2023-04-28T12:03:44;18.10;99.90
23305;DHT22;11821;51.456;8.844;2023-04-28T12:06:10;18.10;99.90
23305;DHT22;11821;51.456;8.844;2023-04-28T12:08:37;18.10;99.90
23305;DHT22;11821;51.456;8.844;2023-04-28T12:11:11;18.20;99.90
23305;DHT22;11821;51.456;8.844;2023-04-28T12:13:43;18.40;99.90
23305;DHT22;11821;51.456;8.844;2023-04-28T12:16:37;18.60;99.90
23305;DHT22;11821;51.456;8.844;2023-04-28T12:19:04;18.70;99.90
23305;DHT22;11821;51.456;8.844;2023-04-28T12:21:35;18.70;99.90
23305;DHT22;11821;51.456;8.844;2023-04-28T12:24:15;18.90;99.90
23305;DHT22;11821;51.456;8.844;2023-04-28T12:26:42;18.80;99.90
23305;DHT22;11821;51.456;8.844;2023-04-28T12:29:08;18.60;99.90
23305;DHT22;11821;51.456;8.844;2023-04-28T12:31:49;18.30;99.90
23305;DHT22;11821;51.456;8.844;2023-04-28T12:34:17;18.20;99.90
23305;DHT22;11821;51.456;8.844;2023-04-28T12:36:43;18.10;99.90
23305;DHT22;11821;51.456;8.844;2023-04-28T12:39:13;18.10;99.90
23305;DHT22;11821;51.456;8.844;2023-04-28T12:41:41;18.00;99.90
23305;DHT22;11821;51.456;8.844;2023-04-28T12:44:08;18.00;99.90
23305;DHT22;11821;51.456;8.844;2023-04-28T12:46:35;18.10;99.90
23305;DHT22;11821;51.456;8.844;2023-04-28T12:49:02;18.30;99.90
23305;DHT22;11821;51.456;8.844;2023-04-28T12:51:28;18.50;99.90
23305;DHT22;11821;51.456;8.844;2023-04-28T12:53:55;18.60;99.90
23305;DHT22;11821;51.456;8.844;2023-04-28T12:56:21;18.80;99.90
23305;DHT22;11821;51.456;8.844;2023-04-28T12:58:49;18.90;99.90
23305;DHT22;11821;51.456;8.844;2023-04-28T13:01:15;19.00;99.90
23305;DHT22;11821;51.456;8.844;2023-04-28T13:03:41;19.10;99.90
23305;DHT22;11821;51.456;8.844;2023-04-28T13:06:09;19.30;99.90
23305;DHT22;11821;51.456;8.844;2023-04-28T13:08:36;19.30;99.90
23305;DHT22;11821;51.456;8.844;2023-04-28T13:11:02;19.10;99.90
23305;DHT22;11821;51.456;8.844;2023-04-28T13:13:32;19.10;99.90
23305;DHT22;11821;51.456;8.844;2023-04-28T13:15:58;18.90;99.90
23305;DHT22;11821;51.456;8.844;2023-04-28T13:18:24;18.80;99.90
23305;DHT22;11821;51.456;8.844;2023-04-28T13:20:51;18.60;99.90
23305;DHT22;11821;51.456;8.844;2023-04-28T13:23:18;18.20;99.90
23305;DHT22;11821;51.456;8.844;2023-04-28T13:25:44;18.20;99.90
23305;DHT22;11821;51.456;8.844;2023-04-28T13:28:11;18.10;99.90
23305;DHT22;11821;51.456;8.844;2023-04-28T13:30:38;18.00;99.90
23305;DHT22;11821;51.456;8.844;2023-04-28T13:33:04;18.00;99.90
23305;DHT22;11821;51.456;8.844;2023-04-28T13:35:31;17.90;99.90
23305;DHT22;11821;51.456;8.844;2023-04-28T13:37:57;17.70;99.90
23305;DHT22;11821;51.456;8.844;2023-04-28T13:40:27;17.70;99.90
23305;DHT22;11821;51.456;8.844;2023-04-28T13:42:54;17.90;99.90
23305;DHT22;11821;51.456;8.844;2023-04-28T13:45:20;17.90;99.90
23305;DHT22;11821;51.456;8.844;2023-04-28T13:47:47;17.70;99.90
23305;DHT22;11821;51.456;8.844;2023-04-28T13:50:14;17.50;99.90
23305;DHT22;11821;51.456;8.844;2023-04-28T13:52:41;17.50;99.90
23305;DHT22;11821;51.456;8.844;2023-04-28T13:55:07;17.50;99.90
23305;DHT22;11821;51.456;8.844;2023-04-28T13:57:34;17.30;99.90
23305;DHT22;11821;51.456;8.844;2023-04-28T14:00:02;17.40;99.90
23305;DHT22;11821;51.456;8.844;2023-04-28T14:02:33;17.40;99.90
23305;DHT22;11821;51.456;8.844;2023-04-28T14:04:59;17.60;99.90
23305;DHT22;11821;51.456;8.844;2023-04-28T14:07:27;17.60;99.90
23305;DHT22;11821;51.456;8.844;2023-04-28T14:09:53;17.60;99.90
23305;DHT22;11821;51.456;8.844;2023-04-28T14:12:19;17.60;99.90
23305;DHT22;11821;51.456;8.844;2023-04-28T14:14:46;17.70;99.90
23305;DHT22;11821;51.456;8.844;2023-04-28T14:17:14;17.70;99.90
23305;DHT22;11821;51.456;8.844;2023-04-28T14:19:40;17.80;99.90
23305;DHT22;11821;51.456;8.844;2023-04-28T14:22:06;17.80;99.90
23305;DHT22;11821;51.456;8.844;2023-04-28T14:24:33;17.80;99.90
23305;DHT22;11821;51.456;8.844;2023-04-28T14:26:59;17.80;99.90
23305;DHT22;11821;51.456;8.844;2023-04-28T14:29:25;17.80;99.90
23305;DHT22;11821;51.456;8.844;2023-04-28T14:31:52;17.60;99.90
23305;DHT22;11821;51.456;8.844;2023-04-28T14:34:18;17.50;99.90
23305;DHT22;11821;51.456;8.844;2023-04-28T14:36:45;17.50;99.90
23305;DHT22;11821;51.456;8.844;2023-04-28T14:39:12;17.50;99.90
23305;DHT22;11821;51.456;8.844;2023-04-28T14:41:39;17.50;99.90
23305;DHT22;11821;51.456;8.844;2023-04-28T14:44:07;17.60;99.90
23305;DHT22;11821;51.456;8.844;2023-04-28T14:46:45;17.50;99.90
23305;DHT22;11821;51.456;8.844;2023-04-28T14:49:11;17.60;99.90
23305;DHT22;11821;51.456;8.844;2023-04-28T14:51:38;17.70;99.90
23305;DHT22;11821;51.456;8.844;2023-04-28T14:54:04;17.70;99.90
23305;DHT22;11821;51.456;8.844;2023-04-28T14:56:44;17.80;99.90
23305;DHT22;11821;51.456;8.844;2023-04-28T14:59:21;17.80;99.90
23305;DHT22;11821;51.456;8.844;2023-04-28T15:01:47;17.90;99.90
23305;DHT22;11821;51.456;8.844;2023-04-28T15:04:16;17.90;99.90
23305;DHT22;11821;51.456;8.844;2023-04-28T15:06:42;18.00;99.90
23305;DHT22;11821;51.456;8.844;2023-04-28T15:09:09;18.10;99.90
23305;DHT22;11821;51.456;8.844;2023-04-28T15:11:35;18.40;99.90
23305;DHT22;11821;51.456;8.844;2023-04-28T15:14:02;18.70;99.90
23305;DHT22;11821;51.456;8.844;2023-04-28T15:16:29;19.00;99.90
23305;DHT22;11821;51.456;8.844;2023-04-28T15:18:55;19.10;99.90
23305;DHT22;11821;51.456;8.844;2023-04-28T15:21:22;19.30;99.90
23305;DHT22;11821;51.456;8.844;2023-04-28T15:23:49;19.40;99.90
23305;DHT22;11821;51.456;8.844;2023-04-28T15:26:15;19.20;99.90
23305;DHT22;11821;51.456;8.844;2023-04-28T15:28:44;19.10;99.90
23305;DHT22;11821;51.456;8.844;2023-04-28T15:31:24;19.00;99.90
23305;DHT22;11821;51.456;8.844;2023-04-28T15:33:51;19.10;99.90
23305;DHT22;11821;51.456;8.844;2023-04-28T15:36:18;19.10;99.90
23305;DHT22;11821;51.456;8.844;2023-04-28T15:38:46;19.10;99.90
23305;DHT22;11821;51.456;8.844;2023-04-28T15:41:14;19.20;99.90
23305;DHT22;11821;51.456;8.844;2023-04-28T15:43:41;19.00;99.90
23305;DHT22;11821;51.456;8.844;2023-04-28T15:46:09;19.10;99.90
23305;DHT22;11821;51.456;8.844;2023-04-28T15:48:39;18.90;99.90
23305;DHT22;11821;51.456;8.844;2023-04-28T15:51:09;18.90;99.90
23305;DHT22;11821;51.456;8.844;2023-04-28T15:53:37;19.00;99.90
23305;DHT22;11821;51.456;8.844;2023-04-28T15:56:04;19.00;99.90
23305;DHT22;11821;51.456;8.844;2023-04-28T15:58:30;19.10;99.90
23305;DHT22;11821;51.456;8.844;2023-04-28T16:00:57;19.00;99.90
23305;DHT22;11821;51.456;8.844;2023-04-28T16:03:24;19.10;99.90
23305;DHT22;11821;51.456;8.844;2023-04-28T16:05:55;19.00;99.90
23305;DHT22;11821;51.456;8.844;2023-04-28T16:08:22;19.10;99.90
23305;DHT22;11821;51.456;8.844;2023-04-28T16:10:51;19.00;99.90
23305;DHT22;11821;51.456;8.844;2023-04-28T16:13:18;18.70;99.90
23305;DHT22;11821;51.456;8.844;2023-04-28T16:15:45;18.70;99.90
23305;DHT22;11821;51.456;8.844;2023-04-28T16:18:12;18.80;99.90
23305;DHT22;11821;51.456;8.844;2023-04-28T16:20:38;18.80;99.90
23305;DHT22;11821;51.456;8.844;2023-04-28T16:23:05;18.70;99.90
23305;DHT22;11821;51.456;8.844;2023-04-28T16:25:32;18.70;99.90
23305;DHT22;11821;51.456;8.844;2023-04-28T16:28:00;18.70;99.90
23305;DHT22;11821;51.456;8.844;2023-04-28T16:30:27;18.60;99.90
23305;DHT22;11821;51.456;8.844;2023-04-28T16:32:53;18.60;99.90
23305;DHT22;11821;51.456;8.844;2023-04-28T16:35:24;18.60;99.90
23305;DHT22;11821;51.456;8.844;2023-04-28T16:37:50;18.80;99.90
23305;DHT22;11821;51.456;8.844;2023-04-28T16:40:17;18.70;99.90
23305;DHT22;11821;51.456;8.844;2023-04-28T16:42:43;18.50;99.90
23305;DHT22;11821;51.456;8.844;2023-04-28T16:45:11;18.50;99.90
23305;DHT22;11821;51.456;8.844;2023-04-28T16:47:38;18.40;99.90
23305;DHT22;11821;51.456;8.844;2023-04-28T16:50:11;18.30;99.90
23305;DHT22;11821;51.456;8.844;2023-04-28T16:52:39;18.20;99.90
23305;DHT22;11821;51.456;8.844;2023-04-28T16:55:06;18.20;99.90
23305;DHT22;11821;51.456;8.844;2023-04-28T16:57:33;18.10;99.90
23305;DHT22;11821;51.456;8.844;2023-04-28T16:59:59;18.00;99.90
23305;DHT22;11821;51.456;8.844;2023-04-28T17:02:25;18.10;99.90
23305;DHT22;11821;51.456;8.844;2023-04-28T17:04:53;18.10;99.90
23305;DHT22;11821;51.456;8.844;2023-04-28T17:07:20;18.10;99.90
23305;DHT22;11821;51.456;8.844;2023-04-28T17:09:46;17.90;99.90
23305;DHT22;11821;51.456;8.844;2023-04-28T17:12:13;17.90;99.90
23305;DHT22;11821;51.456;8.844;2023-04-28T17:14:39;17.90;99.90
23305;DHT22;11821;51.456;8.844;2023-04-28T17:17:06;17.90;99.90
23305;DHT22;11821;51.456;8.844;2023-04-28T17:19:33;17.80;99.90
23305;DHT22;11821;51.456;8.844;2023-04-28T17:22:01;17.70;99.90
23305;DHT22;11821;51.456;8.844;2023-04-28T17:24:28;17.80;99.90
23305;DHT22;11821;51.456;8.844;2023-04-28T17:26:54;17.90;99.90
23305;DHT22;11821;51.456;8.844;2023-04-28T17:29:20;18.00;99.90
23305;DHT22;11821;51.456;8.844;2023-04-28T17:31:47;17.90;99.90
23305;DHT22;11821;51.456;8.844;2023-04-28T17:34:13;17.90;99.90
23305;DHT22;11821;51.456;8.844;2023-04-28T17:36:40;17.80;99.90
23305;DHT22;11821;51.456;8.844;2023-04-28T17:39:07;17.80;99.90
23305;DHT22;11821;51.456;8.844;2023-04-28T17:41:34;17.70;99.90
23305;DHT22;11821;51.456;8.844;2023-04-28T17:44:01;17.70;99.90
23305;DHT22;11821;51.456;8.844;2023-04-28T17:46:27;17.80;99.90
23305;DHT22;11821;51.456;8.844;2023-04-28T17:48:53;17.90;99.90
23305;DHT22;11821;51.456;8.844;2023-04-28T17:51:20;17.90;99.90
23305;DHT22;11821;51.456;8.844;2023-04-28T17:53:46;17.80;99.90
23305;DHT22;11821;51.456;8.844;2023-04-28T17:56:14;17.80;99.90
23305;DHT22;11821;51.456;8.844;2023-04-28T17:58:41;17.70;99.90
23305;DHT22;11821;51.456;8.844;2023-04-28T18:01:10;17.60;99.90
23305;DHT22;11821;51.456;8.844;2023-04-28T18:03:37;17.70;99.90
23305;DHT22;11821;51.456;8.844;2023-04-28T18:06:04;17.70;99.90
23305;DHT22;11821;51.456;8.844;2023-04-28T18:08:33;17.70;99.90
23305;DHT22;11821;51.456;8.844;2023-04-28T18:11:00;17.80;99.90
23305;DHT22;11821;51.456;8.844;2023-04-28T18:13:26;17.80;99.90
23305;DHT22;11821;51.456;8.844;2023-04-28T18:15:58;17.70;99.90
23305;DHT22;11821;51.456;8.844;2023-04-28T18:18:25;17.70;99.90
23305;DHT22;11821;51.456;8.844;2023-04-28T18:20:56;17.50;99.90
23305;DHT22;11821;51.456;8.844;2023-04-28T18:23:24;17.50;99.90
23305;DHT22;11821;51.456;8.844;2023-04-28T18:25:55;17.50;99.90
23305;DHT22;11821;51.456;8.844;2023-04-28T18:28:27;17.60;99.90
23305;DHT22;11821;51.456;8.844;2023-04-28T18:30:54;17.50;99.90
23305;DHT22;11821;51.456;8.844;2023-04-28T18:33:20;17.40;99.90
23305;DHT22;11821;51.456;8.844;2023-04-28T18:35:48;17.30;99.90
23305;DHT22;11821;51.456;8.844;2023-04-28T18:38:14;17.20;99.90
23305;DHT22;11821;51.456;8.844;2023-04-28T18:40:40;17.00;99.90
23305;DHT22;11821;51.456;8.844;2023-04-28T18:43:07;16.90;99.90
23305;DHT22;11821;51.456;8.844;2023-04-28T18:45:36;16.80;99.90
23305;DHT22;11821;51.456;8.844;2023-04-28T18:48:06;16.90;99.90
23305;DHT22;11821;51.456;8.844;2023-04-28T18:50:33;17.00;99.90
23305;DHT22;11821;51.456;8.844;2023-04-28T18:52:59;16.80;99.90
23305;DHT22;11821;51.456;8.844;2023-04-28T18:55:26;16.80;99.90
23305;DHT22;11821;51.456;8.844;2023-04-28T18:57:52;16.80;99.90
23305;DHT22;11821;51.456;8.844;2023-04-28T19:00:19;16.70;99.90
23305;DHT22;11821;51.456;8.844;2023-04-28T19:02:45;16.60;99.90
23305;DHT22;11821;51.456;8.844;2023-04-28T19:05:12;16.60;99.90
23305;DHT22;11821;51.456;8.844;2023-04-28T19:07:38;16.60;99.90
23305;DHT22;11821;51.456;8.844;2023-04-28T19:10:05;16.50;99.90
23305;DHT22;11821;51.456;8.844;2023-04-28T19:12:32;16.30;99.90
23305;DHT22;11821;51.456;8.844;2023-04-28T19:14:58;16.40;99.90
23305;DHT22;11821;51.456;8.844;2023-04-28T19:17:26;16.30;99.90
23305;DHT22;11821;51.456;8.844;2023-04-28T19:19:56;16.20;99.90
23305;DHT22;11821;51.456;8.844;2023-04-28T19:22:34;16.40;99.90
23305;DHT22;11821;51.456;8.844;2023-04-28T19:25:02;16.30;99.90
23305;DHT22;11821;51.456;8.844;2023-04-28T19:27:31;16.30;99.90
23305;DHT22;11821;51.456;8.844;2023-04-28T19:29:58;16.40;99.90
23305;DHT22;11821;51.456;8.844;2023-04-28T19:32:25;16.50;99.90
23305;DHT22;11821;51.456;8.844;2023-04-28T19:34:52;16.40;99.90
23305;DHT22;11821;51.456;8.844;2023-04-28T19:37:18;16.40;99.90
23305;DHT22;11821;51.456;8.844;2023-04-28T19:39:46;16.40;99.90
23305;DHT22;11821;51.456;8.844;2023-04-28T19:42:12;16.40;99.90
23305;DHT22;11821;51.456;8.844;2023-04-28T19:44:39;16.30;99.90
23305;DHT22;11821;51.456;8.844;2023-04-28T19:47:05;16.20;99.90
23305;DHT22;11821;51.456;8.844;2023-04-28T19:49:33;16.10;99.90
23305;DHT22;11821;51.456;8.844;2023-04-28T19:52:00;16.20;99.90
23305;DHT22;11821;51.456;8.844;2023-04-28T19:54:26;16.20;99.90
23305;DHT22;11821;51.456;8.844;2023-04-28T19:56:53;16.20;99.90
23305;DHT22;11821;51.456;8.844;2023-04-28T19:59:21;16.20;99.90
23305;DHT22;11821;51.456;8.844;2023-04-28T20:01:47;16.30;99.90
23305;DHT22;11821;51.456;8.844;2023-04-28T20:04:15;16.30;99.90
23305;DHT22;11821;51.456;8.844;2023-04-28T20:06:41;16.30;99.90
23305;DHT22;11821;51.456;8.844;2023-04-28T20:09:08;16.30;99.90
23305;DHT22;11821;51.456;8.844;2023-04-28T20:11:35;16.40;99.90
23305;DHT22;11821;51.456;8.844;2023-04-28T20:14:01;16.30;99.90
23305;DHT22;11821;51.456;8.844;2023-04-28T20:16:27;16.10;99.90
23305;DHT22;11821;51.456;8.844;2023-04-28T20:18:54;15.90;99.90
23305;DHT22;11821;51.456;8.844;2023-04-28T20:21:21;15.90;99.90
23305;DHT22;11821;51.456;8.844;2023-04-28T20:23:47;15.90;99.90
23305;DHT22;11821;51.456;8.844;2023-04-28T20:26:14;15.90;99.90
23305;DHT22;11821;51.456;8.844;2023-04-28T20:28:43;15.80;99.90
23305;DHT22;11821;51.456;8.844;2023-04-28T20:31:10;15.80;99.90
23305;DHT22;11821;51.456;8.844;2023-04-28T20:33:36;15.90;99.90
23305;DHT22;11821;51.456;8.844;2023-04-28T20:36:03;15.90;99.90
23305;DHT22;11821;51.456;8.844;2023-04-28T20:38:30;16.00;99.90
23305;DHT22;11821;51.456;8.844;2023-04-28T20:40:56;15.90;99.90
23305;DHT22;11821;51.456;8.844;2023-04-28T20:43:25;15.90;99.90
23305;DHT22;11821;51.456;8.844;2023-04-28T20:45:51;15.90;99.90
23305;DHT22;11821;51.456;8.844;2023-04-28T20:48:18;15.80;99.90
23305;DHT22;11821;51.456;8.844;2023-04-28T20:50:46;15.70;99.90
23305;DHT22;11821;51.456;8.844;2023-04-28T20:53:17;15.70;99.90
23305;DHT22;11821;51.456;8.844;2023-04-28T20:55:44;15.60;99.90
23305;DHT22;11821;51.456;8.844;2023-04-28T20:58:10;15.60;99.90
23305;DHT22;11821;51.456;8.844;2023-04-28T21:00:37;15.60;99.90
23305;DHT22;11821;51.456;8.844;2023-04-28T21:03:05;15.60;99.90
23305;DHT22;11821;51.456;8.844;2023-04-28T21:05:32;15.70;99.90
23305;DHT22;11821;51.456;8.844;2023-04-28T21:07:58;15.70;99.90
23305;DHT22;11821;51.456;8.844;2023-04-28T21:10:25;15.80;99.90
23305;DHT22;11821;51.456;8.844;2023-04-28T21:12:51;15.80;99.90
23305;DHT22;11821;51.456;8.844;2023-04-28T21:15:20;15.70;99.90
23305;DHT22;11821;51.456;8.844;2023-04-28T21:17:47;15.80;99.90
23305;DHT22;11821;51.456;8.844;2023-04-28T21:20:13;15.70;99.90
23305;DHT22;11821;51.456;8.844;2023-04-28T21:22:40;15.70;99.90
23305;DHT22;11821;51.456;8.844;2023-04-28T21:25:06;15.70;99.90
23305;DHT22;11821;51.456;8.844;2023-04-28T21:27:33;15.70;99.90
23305;DHT22;11821;51.456;8.844;2023-04-28T21:30:00;15.70;99.90
23305;DHT22;11821;51.456;8.844;2023-04-28T21:32:26;15.70;99.90
23305;DHT22;11821;51.456;8.844;2023-04-28T21:34:52;15.70;99.90
23305;DHT22;11821;51.456;8.844;2023-04-28T21:37:19;15.60;99.90
23305;DHT22;11821;51.456;8.844;2023-04-28T21:39:45;15.60;99.90
23305;DHT22;11821;51.456;8.844;2023-04-28T21:42:12;15.60;99.90
23305;DHT22;11821;51.456;8.844;2023-04-28T21:44:38;15.60;99.90
23305;DHT22;11821;51.456;8.844;2023-04-28T21:47:05;15.60;99.90
23305;DHT22;11821;51.456;8.844;2023-04-28T21:49:34;15.60;99.90
23305;DHT22;11821;51.456;8.844;2023-04-28T21:52:01;15.50;99.90
23305;DHT22;11821;51.456;8.844;2023-04-28T21:54:32;15.50;99.90
23305;DHT22;11821;51.456;8.844;2023-04-28T21:56:58;15.60;99.90
23305;DHT22;11821;51.456;8.844;2023-04-28T21:59:24;15.60;99.90
23305;DHT22;11821;51.456;8.844;2023-04-28T22:01:51;15.60;99.90
23305;DHT22;11821;51.456;8.844;2023-04-28T22:06:44;15.50;99.90
23305;DHT22;11821;51.456;8.844;2023-04-28T22:09:10;15.60;99.90
23305;DHT22;11821;51.456;8.844;2023-04-28T22:11:37;15.60;99.90
23305;DHT22;11821;51.456;8.844;2023-04-28T22:14:03;15.60;99.90
23305;DHT22;11821;51.456;8.844;2023-04-28T22:16:30;15.50;99.90
23305;DHT22;11821;51.456;8.844;2023-04-28T22:18:56;15.50;99.90
23305;DHT22;11821;51.456;8.844;2023-04-28T22:21:23;15.50;99.90
23305;DHT22;11821;51.456;8.844;2023-04-28T22:28:53;15.60;99.90
23305;DHT22;11821;51.456;8.844;2023-04-28T22:33:47;15.60;99.90
23305;DHT22;11821;51.456;8.844;2023-04-28T22:36:13;15.60;99.90
23305;DHT22;11821;51.456;8.844;2023-04-28T22:38:40;15.60;99.90
23305;DHT22;11821;51.456;8.844;2023-04-28T22:41:06;15.50;99.90
23305;DHT22;11821;51.456;8.844;2023-04-28T22:43:32;15.40;99.90
23305;DHT22;11821;51.456;8.844;2023-04-28T22:46:02;15.50;99.90
23305;DHT22;11821;51.456;8.844;2023-04-28T22:48:29;15.60;99.90
23305;DHT22;11821;51.456;8.844;2023-04-28T22:50:55;15.50;99.90
23305;DHT22;11821;51.456;8.844;2023-04-28T22:53:21;15.40;99.90
23305;DHT22;11821;51.456;8.844;2023-04-28T22:55:47;15.40;99.90
23305;DHT22;11821;51.456;8.844;2023-04-28T22:58:14;15.40;99.90
23305;DHT22;11821;51.456;8.844;2023-04-28T23:00:40;15.40;99.90
23305;DHT22;11821;51.456;8.844;2023-04-28T23:03:07;15.30;99.90
23305;DHT22;11821;51.456;8.844;2023-04-28T23:05:37;15.30;99.90
23305;DHT22;11821;51.456;8.844;2023-04-28T23:08:04;15.30;99.90
23305;DHT22;11821;51.456;8.844;2023-04-28T23:10:30;15.30;99.90
23305;DHT22;11821;51.456;8.844;2023-04-28T23:12:56;15.30;99.90
23305;DHT22;11821;51.456;8.844;2023-04-28T23:15:22;15.30;99.90
23305;DHT22;11821;51.456;8.844;2023-04-28T23:17:49;15.40;99.90
23305;DHT22;11821;51.456;8.844;2023-04-28T23:20:15;15.30;99.90
23305;DHT22;11821;51.456;8.844;2023-04-28T23:22:42;15.30;99.90
23305;DHT22;11821;51.456;8.844;2023-04-28T23:25:08;15.30;99.90
23305;DHT22;11821;51.456;8.844;2023-04-28T23:27:35;15.50;99.90
23305;DHT22;11821;51.456;8.844;2023-04-28T23:30:01;15.50;99.90
23305;DHT22;11821;51.456;8.844;2023-04-28T23:32:27;15.60;99.90
23305;DHT22;11821;51.456;8.844;2023-04-28T23:34:54;15.60;99.90
23305;DHT22;11821;51.456;8.844;2023-04-28T23:44:41;15.60;99.90
23305;DHT22;11821;51.456;8.844;2023-04-28T23:59:20;15.60;99.90
